Hlavní strana
METAR-TAF:

METAR-TAF

Letiště :

Letiště Brno-Tuřany

Brno, Česká republika

zeměpisná šířka: 49-09N, zeměpisná délka: 016-42E, výška: 241 m

Aktuální stav počasí

Zpráva byla vytvořena před 17 minutami, v 21:00 UTC
Východoseverovýchodní vítr 5 kt
Teplota 20°C
Vlhkost vzduchu 56%
Tlak 1021 hPa
Viditelnost 10 km a více
Žádná oblačnost pod 1500 m, nevyskytují se cumulonimby.

METAR: LKTB 262100Z 07005KT CAVOK 20/11 Q1021 NOSIG

Čas: 23:17 (21:17 UTC)

Předpověď počasí

Zpráva byla vytvořena před 4 hodinami a 17 minutami, v 17:00 UTC
Předpověď platná od 26 v 18 UTC do 28 v 00 UTC
Jižní vítr 5 kt
Viditelnost 10 km a více
Žádná oblačnost pod 1500 m, nevyskytují se cumulonimby.
Pravděpodobnost 30% :
Dočasný
od 27 v 02 UTC do 27 v 05 UTC
Viditelnost: 5000 m
kouřmo
Pravděpodobnost 30% :
Dočasný
od 27 v 09 UTC do 27 v 17 UTC
Jihovýchodní vítr 12 kt
Polojasno ve výšce 5000 ft, Vertikální cumulus.

TAF: LKTB 261700Z 2618/2800 17005KT CAVOK PROB30 TEMPO 2702/2705 5000 BR NSC PROB30 TEMPO 2709/2717 14012KT SCT050TCU

Stav a předpovědi počasí z více než 4 000 letišť (zprávy METAR a TAF).

Červené a žluté tečky na mapě představují dostupné meteorologické stanice.

Když kurzor umístíte na tečku, zobrazí se název stanice.

Pak kliknutím zobrazíte stav a předpověď počasí.

Chcete-li změnit mapu, kliknutím na zelené tlačítko se znaménkem +mapu přiblížíte, kliknutím na zelené tlačítko se znaménkem – mapu oddálíte a kliknutím na zelené šipky přejdete na sousední mapy.


METAR-TAF: